Time,TemperatureF,DewpointF,PressureIn,WindDirection,WindDirectionDegrees,WindSpeedMPH,WindSpeedGustMPH,Humidity,HourlyPrecipIn,Conditions,Clouds,dailyrainin,SoftwareType,DateUTC
2013-09-30 00:01:00,58.8,54.3,30.06,East,80,0.0,0.0,85,0.00,,,0.00,Wunderground v.1.15,2013-09-30 04:01:00,
2013-09-30 00:04:00,58.7,54.2,30.06,East,80,0.0,0.0,85,0.00,,,0.00,Wunderground v.1.15,2013-09-30 04:04:00,
2013-09-30 00:05:00,58.7,54.2,30.06,East,80,0.0,0.0,85,0.00,,,0.00,Wunderground v.1.15,2013-09-30 04:05:00,
2013-09-30 00:08:00,58.6,54.1,30.06,East,80,0.0,0.0,85,0.00,,,0.00,Wunderground v.1.15,2013-09-30 04:08:00,
2013-09-30 00:13:00,58.4,53.9,30.06,East,80,1.0,1.0,85,0.00,,,0.00,Wunderground v.1.15,2013-09-30 04:13:00,
2013-09-30 00:19:00,58.3,54.1,30.06,East,80,0.0,1.0,86,0.00,,,0.00,Wunderground v.1.15,2013-09-30 04:19:00,
2013-09-30 00:24:00,58.1,53.9,30.06,East,80,0.0,0.0,86,0.00,,,0.00,Wunderground v.1.15,2013-09-30 04:24:00,
2013-09-30 00:30:00,57.8,53.6,30.06,East,80,0.0,0.0,86,0.00,,,0.00,Wunderground v.1.15,2013-09-30 04:30:00,
2013-09-30 00:35:00,57.7,53.9,30.06,East,80,1.0,1.0,87,0.00,,,0.00,Wunderground v.1.15,2013-09-30 04:35:00,
2013-09-30 00:42:00,57.6,53.8,30.06,East,80,0.0,1.0,87,0.00,,,0.00,Wunderground v.1.15,2013-09-30 04:42:00,
2013-09-30 00:48:00,57.6,53.8,30.06,East,80,0.0,1.0,87,0.00,,,0.00,Wunderground v.1.15,2013-09-30 04:48:00,
2013-09-30 00:54:00,57.4,53.6,30.06,East,80,0.0,1.0,87,0.00,,,0.00,Wunderground v.1.15,2013-09-30 04:54:00,
2013-09-30 00:59:00,57.3,53.5,30.06,East,80,0.0,1.0,87,0.00,,,0.00,Wunderground v.1.15,2013-09-30 04:59:00,
2013-09-30 01:04:00,57.3,53.5,30.06,East,80,1.0,1.0,87,0.00,,,0.00,Wunderground v.1.15,2013-09-30 05:04:00,
2013-09-30 01:09:00,57.2,53.4,30.06,East,80,0.0,1.0,87,0.00,,,0.00,Wunderground v.1.15,2013-09-30 05:09:00,
2013-09-30 01:14:00,57.1,53.3,30.06,East,80,1.0,1.0,87,0.00,,,0.00,Wunderground v.1.15,2013-09-30 05:14:00,
2013-09-30 01:20:00,57.2,53.4,30.06,East,80,0.0,1.0,87,0.00,,,0.00,Wunderground v.1.15,2013-09-30 05:20:00,
2013-09-30 01:26:00,57.0,53.2,30.06,East,80,0.0,1.0,87,0.00,,,0.00,Wunderground v.1.15,2013-09-30 05:26:00,
2013-09-30 01:31:00,56.8,53.0,30.06,East,80,0.0,0.0,87,0.00,,,0.00,Wunderground v.1.15,2013-09-30 05:31:00,
2013-09-30 01:37:00,56.6,52.8,30.06,East,80,0.0,1.0,87,0.00,,,0.00,Wunderground v.1.15,2013-09-30 05:37:00,
2013-09-30 01:42:00,56.5,53.0,30.06,East,80,0.0,0.0,88,0.00,,,0.00,Wunderground v.1.15,2013-09-30 05:42:00,
2013-09-30 01:48:00,56.7,52.9,30.06,East,80,0.0,1.0,87,0.00,,,0.00,Wunderground v.1.15,2013-09-30 05:48:00,
2013-09-30 01:54:00,56.8,53.0,30.05,East,80,0.0,0.0,87,0.00,,,0.00,Wunderground v.1.15,2013-09-30 05:54:00,
2013-09-30 02:00:00,56.3,52.5,30.06,East,80,0.0,0.0,87,0.00,,,0.00,Wunderground v.1.15,2013-09-30 06:00:00,
2013-09-30 02:05:00,56.0,52.5,30.06,East,80,0.0,0.0,88,0.00,,,0.00,Wunderground v.1.15,2013-09-30 06:05:00,
2013-09-30 02:10:00,56.0,52.5,30.06,East,80,0.0,0.0,88,0.00,,,0.00,Wunderground v.1.15,2013-09-30 06:10:00,
2013-09-30 02:15:00,55.9,52.4,30.05,East,80,0.0,0.0,88,0.00,,,0.00,Wunderground v.1.15,2013-09-30 06:15:00,
2013-09-30 02:20:00,55.6,52.4,30.05,East,80,0.0,0.0,89,0.00,,,0.00,Wunderground v.1.15,2013-09-30 06:20:00,
2013-09-30 02:25:00,55.5,52.3,30.05,East,80,0.0,0.0,89,0.00,,,0.00,Wunderground v.1.15,2013-09-30 06:25:00,
2013-09-30 02:30:00,55.3,52.1,30.05,East,80,0.0,0.0,89,0.00,,,0.00,Wunderground v.1.15,2013-09-30 06:30:00,
2013-09-30 02:35:00,55.2,52.3,30.05,East,80,0.0,0.0,90,0.00,,,0.00,Wunderground v.1.15,2013-09-30 06:35:00,
2013-09-30 02:40:00,55.1,52.2,30.05,East,80,0.0,0.0,90,0.00,,,0.00,Wunderground v.1.15,2013-09-30 06:40:00,
2013-09-30 02:45:00,55.1,52.2,30.05,East,80,0.0,0.0,90,0.00,,,0.00,Wunderground v.1.15,2013-09-30 06:45:00,
2013-09-30 02:50:00,55.1,52.2,30.05,East,80,0.0,0.0,90,0.00,,,0.00,Wunderground v.1.15,2013-09-30 06:50:00,
2013-09-30 02:55:00,55.0,52.1,30.05,East,80,0.0,0.0,90,0.00,,,0.00,Wunderground v.1.15,2013-09-30 06:55:00,
2013-09-30 03:00:00,54.9,52.0,30.05,East,80,0.0,0.0,90,0.00,,,0.00,Wunderground v.1.15,2013-09-30 07:00:00,
2013-09-30 03:05:00,54.9,52.0,30.05,East,80,0.0,0.0,90,0.00,,,0.00,Wunderground v.1.15,2013-09-30 07:05:00,
2013-09-30 03:10:00,54.9,52.0,30.05,East,80,0.0,0.0,90,0.00,,,0.00,Wunderground v.1.15,2013-09-30 07:10:00,
2013-09-30 03:15:00,55.0,52.1,30.05,East,80,0.0,0.0,90,0.00,,,0.00,Wunderground v.1.15,2013-09-30 07:15:00,
2013-09-30 03:20:00,55.0,51.8,30.05,East,80,0.0,0.0,89,0.00,,,0.00,Wunderground v.1.15,2013-09-30 07:20:00,
2013-09-30 03:25:00,55.0,51.8,30.05,East,80,0.0,0.0,89,0.00,,,0.00,Wunderground v.1.15,2013-09-30 07:25:00,
2013-09-30 03:30:00,54.8,51.6,30.05,East,80,0.0,0.0,89,0.00,,,0.00,Wunderground v.1.15,2013-09-30 07:30:00,
2013-09-30 03:35:00,54.9,51.7,30.05,East,80,0.0,0.0,89,0.00,,,0.00,Wunderground v.1.15,2013-09-30 07:35:00,
2013-09-30 03:40:00,54.8,51.9,30.05,East,80,0.0,0.0,90,0.00,,,0.00,Wunderground v.1.15,2013-09-30 07:40:00,
2013-09-30 03:45:00,54.9,51.7,30.05,East,80,0.0,0.0,89,0.00,,,0.00,Wunderground v.1.15,2013-09-30 07:45:00,
2013-09-30 03:50:00,55.0,51.8,30.05,East,80,0.0,0.0,89,0.00,,,0.00,Wunderground v.1.15,2013-09-30 07:50:00,
2013-09-30 03:55:00,55.0,51.8,30.05,East,80,0.0,0.0,89,0.00,,,0.00,Wunderground v.1.15,2013-09-30 07:55:00,
2013-09-30 04:00:00,55.1,51.9,30.05,East,80,0.0,0.0,89,0.00,,,0.00,Wunderground v.1.15,2013-09-30 08:00:00,
2013-09-30 04:05:00,55.2,51.7,30.05,East,80,0.0,0.0,88,0.00,,,0.00,Wunderground v.1.15,2013-09-30 08:05:00,
2013-09-30 04:10:00,55.3,52.1,30.05,East,80,0.0,0.0,89,0.00,,,0.00,Wunderground v.1.15,2013-09-30 08:10:00,
2013-09-30 04:15:00,55.4,52.2,30.05,East,80,0.0,0.0,89,0.00,,,0.00,Wunderground v.1.15,2013-09-30 08:15:00,
2013-09-30 04:20:00,55.6,52.4,30.05,East,80,0.0,0.0,89,0.00,,,0.00,Wunderground v.1.15,2013-09-30 08:20:00,
2013-09-30 04:25:00,55.2,52.0,30.05,East,80,0.0,0.0,89,0.00,,,0.00,Wunderground v.1.15,2013-09-30 08:25:00,
2013-09-30 04:30:00,54.8,51.9,30.05,East,80,0.0,0.0,90,0.00,,,0.00,Wunderground v.1.15,2013-09-30 08:30:00,
2013-09-30 04:35:00,54.8,51.9,30.05,East,80,0.0,0.0,90,0.00,,,0.00,Wunderground v.1.15,2013-09-30 08:35:00,
2013-09-30 04:40:00,55.0,52.1,30.05,East,80,0.0,0.0,90,0.00,,,0.00,Wunderground v.1.15,2013-09-30 08:40:00,
2013-09-30 04:45:00,55.2,52.3,30.05,East,80,0.0,0.0,90,0.00,,,0.00,Wunderground v.1.15,2013-09-30 08:45:00,
2013-09-30 04:50:00,55.3,52.4,30.05,East,80,0.0,0.0,90,0.00,,,0.00,Wunderground v.1.15,2013-09-30 08:50:00,
2013-09-30 04:55:00,55.0,52.1,30.05,East,80,0.0,0.0,90,0.00,,,0.00,Wunderground v.1.15,2013-09-30 08:55:00,
2013-09-30 05:00:00,55.0,52.1,30.05,East,80,0.0,0.0,90,0.00,,,0.00,Wunderground v.1.15,2013-09-30 09:00:00,
2013-09-30 05:05:00,54.9,52.0,30.05,East,80,0.0,0.0,90,0.00,,,0.00,Wunderground v.1.15,2013-09-30 09:05:00,
2013-09-30 05:11:00,54.8,52.2,30.05,East,80,0.0,0.0,91,0.00,,,0.00,Wunderground v.1.15,2013-09-30 09:11:00,
2013-09-30 05:16:00,54.8,52.2,30.05,East,80,0.0,0.0,91,0.00,,,0.00,Wunderground v.1.15,2013-09-30 09:16:00,
2013-09-30 05:21:00,54.6,52.0,30.05,East,80,0.0,0.0,91,0.00,,,0.00,Wunderground v.1.15,2013-09-30 09:21:00,
2013-09-30 05:26:00,54.5,52.2,30.05,East,80,0.0,0.0,92,0.00,,,0.00,Wunderground v.1.15,2013-09-30 09:26:00,
2013-09-30 05:31:00,54.5,52.2,30.05,East,80,0.0,0.0,92,0.00,,,0.00,Wunderground v.1.15,2013-09-30 09:31:00,
2013-09-30 05:36:00,54.4,51.8,30.06,East,80,0.0,0.0,91,0.00,,,0.00,Wunderground v.1.15,2013-09-30 09:36:00,
2013-09-30 05:41:00,53.9,51.6,30.06,East,80,0.0,0.0,92,0.00,,,0.00,Wunderground v.1.15,2013-09-30 09:41:00,
2013-09-30 05:46:00,54.0,51.7,30.06,East,80,0.0,0.0,92,0.00,,,0.00,Wunderground v.1.15,2013-09-30 09:46:00,
2013-09-30 05:51:00,54.1,51.8,30.06,East,80,0.0,0.0,92,0.00,,,0.00,Wunderground v.1.15,2013-09-30 09:51:00,
2013-09-30 05:56:00,54.2,51.9,30.06,East,80,0.0,0.0,92,0.00,,,0.00,Wunderground v.1.15,2013-09-30 09:56:00,
2013-09-30 06:01:00,54.4,52.1,30.06,East,80,0.0,0.0,92,0.00,,,0.00,Wunderground v.1.15,2013-09-30 10:01:00,
2013-09-30 06:06:00,54.4,52.1,30.06,East,80,0.0,0.0,92,0.00,,,0.00,Wunderground v.1.15,2013-09-30 10:06:00,
2013-09-30 06:11:00,54.5,52.2,30.06,East,80,0.0,0.0,92,0.00,,,0.00,Wunderground v.1.15,2013-09-30 10:11:00,
2013-09-30 06:16:00,54.6,52.0,30.06,East,80,0.0,0.0,91,0.00,,,0.00,Wunderground v.1.15,2013-09-30 10:16:00,
2013-09-30 06:21:00,54.6,52.0,30.06,East,80,0.0,0.0,91,0.00,,,0.00,Wunderground v.1.15,2013-09-30 10:21:00,
2013-09-30 06:26:00,54.0,51.4,30.06,East,80,0.0,0.0,91,0.00,,,0.00,Wunderground v.1.15,2013-09-30 10:26:00,
2013-09-30 06:31:00,53.7,51.4,30.06,East,80,0.0,0.0,92,0.00,,,0.00,Wunderground v.1.15,2013-09-30 10:31:00,
2013-09-30 06:36:00,53.7,51.4,30.06,East,80,0.0,0.0,92,0.00,,,0.00,Wunderground v.1.15,2013-09-30 10:36:00,
2013-09-30 06:41:00,53.9,51.6,30.06,East,80,0.0,0.0,92,0.00,,,0.00,Wunderground v.1.15,2013-09-30 10:41:00,
2013-09-30 06:46:00,53.8,51.2,30.06,East,80,0.0,0.0,91,0.00,,,0.00,Wunderground v.1.15,2013-09-30 10:46:00,
2013-09-30 06:51:00,53.8,51.2,30.06,East,80,0.0,0.0,91,0.00,,,0.00,Wunderground v.1.15,2013-09-30 10:51:00,
2013-09-30 06:56:00,53.8,51.2,30.06,East,80,0.0,0.0,91,0.00,,,0.00,Wunderground v.1.15,2013-09-30 10:56:00,
2013-09-30 07:01:00,53.9,51.3,30.06,East,80,0.0,0.0,91,0.00,,,0.00,Wunderground v.1.15,2013-09-30 11:01:00,
2013-09-30 07:06:00,54.0,51.4,30.07,East,80,0.0,0.0,91,0.00,,,0.00,Wunderground v.1.15,2013-09-30 11:06:00,
2013-09-30 07:11:00,54.0,51.1,30.07,East,80,0.0,0.0,90,0.00,,,0.00,Wunderground v.1.15,2013-09-30 11:11:00,
2013-09-30 07:16:00,53.9,51.0,30.07,East,80,0.0,0.0,90,0.00,,,0.00,Wunderground v.1.15,2013-09-30 11:16:00,
2013-09-30 07:21:00,53.9,51.3,30.07,East,80,0.0,0.0,91,0.00,,,0.00,Wunderground v.1.15,2013-09-30 11:21:00,
2013-09-30 07:26:00,53.9,51.0,30.07,East,80,0.0,0.0,90,0.00,,,0.00,Wunderground v.1.15,2013-09-30 11:26:00,
2013-09-30 07:31:00,53.7,51.1,30.07,East,80,0.0,0.0,91,0.00,,,0.00,Wunderground v.1.15,2013-09-30 11:31:00,
2013-09-30 07:36:00,53.7,51.1,30.07,East,80,0.0,0.0,91,0.00,,,0.00,Wunderground v.1.15,2013-09-30 11:36:00,
2013-09-30 07:41:00,53.7,51.1,30.07,East,80,0.0,0.0,91,0.00,,,0.00,Wunderground v.1.15,2013-09-30 11:41:00,
2013-09-30 07:46:00,53.9,51.3,30.07,East,80,0.0,0.0,91,0.00,,,0.00,Wunderground v.1.15,2013-09-30 11:46:00,
2013-09-30 07:52:00,54.1,51.5,30.07,East,80,0.0,0.0,91,0.00,,,0.00,Wunderground v.1.15,2013-09-30 11:52:00,
2013-09-30 07:57:00,54.3,51.4,30.07,East,80,0.0,0.0,90,0.00,,,0.00,Wunderground v.1.15,2013-09-30 11:57:00,
2013-09-30 08:02:00,54.6,51.7,30.08,East,80,0.0,0.0,90,0.00,,,0.00,Wunderground v.1.15,2013-09-30 12:02:00,
2013-09-30 08:07:00,55.2,52.3,30.08,East,80,0.0,0.0,90,0.00,,,0.00,Wunderground v.1.15,2013-09-30 12:07:00,
2013-09-30 08:12:00,56.1,53.2,30.08,East,80,0.0,0.0,90,0.00,,,0.00,Wunderground v.1.15,2013-09-30 12:12:00,
2013-09-30 08:17:00,56.7,53.5,30.08,East,80,0.0,0.0,89,0.00,,,0.00,Wunderground v.1.15,2013-09-30 12:17:00,
2013-09-30 08:22:00,57.1,53.3,30.08,East,80,0.0,0.0,87,0.00,,,0.00,Wunderground v.1.15,2013-09-30 12:22:00,
2013-09-30 08:27:00,57.7,53.2,30.08,East,80,0.0,0.0,85,0.00,,,0.00,Wunderground v.1.15,2013-09-30 12:27:00,
2013-09-30 08:32:00,57.8,53.0,30.08,East,80,0.0,0.0,84,0.00,,,0.00,Wunderground v.1.15,2013-09-30 12:32:00,
2013-09-30 08:37:00,58.0,52.9,30.08,East,80,0.0,0.0,83,0.00,,,0.00,Wunderground v.1.15,2013-09-30 12:37:00,
2013-09-30 08:42:00,58.3,52.8,30.08,East,80,0.0,0.0,82,0.00,,,0.00,Wunderground v.1.15,2013-09-30 12:42:00,
2013-09-30 08:47:00,58.6,53.1,30.08,East,80,0.0,0.0,82,0.00,,,0.00,Wunderground v.1.15,2013-09-30 12:47:00,
2013-09-30 08:52:00,58.8,53.3,30.08,East,80,0.0,0.0,82,0.00,,,0.00,Wunderground v.1.15,2013-09-30 12:52:00,
2013-09-30 08:57:00,59.0,53.5,30.08,East,80,0.0,0.0,82,0.00,,,0.00,Wunderground v.1.15,2013-09-30 12:57:00,
2013-09-30 09:02:00,59.0,53.8,30.08,East,80,0.0,0.0,83,0.00,,,0.00,Wunderground v.1.15,2013-09-30 13:02:00,
2013-09-30 09:07:00,59.5,54.0,30.08,ESE,108,0.0,1.0,82,0.00,,,0.00,Wunderground v.1.15,2013-09-30 13:07:00,
2013-09-30 09:12:00,59.8,54.3,30.09,ESE,108,2.0,2.0,82,0.00,,,0.00,Wunderground v.1.15,2013-09-30 13:12:00,
2013-09-30 09:17:00,60.2,54.3,30.08,South,182,0.0,4.0,81,0.00,,,0.00,Wunderground v.1.15,2013-09-30 13:17:00,
2013-09-30 09:22:00,60.5,54.3,30.08,South,182,2.0,3.0,80,0.00,,,0.00,Wunderground v.1.15,2013-09-30 13:22:00,
2013-09-30 09:27:00,60.7,54.8,30.08,SSW,204,0.0,3.0,81,0.00,,,0.00,Wunderground v.1.15,2013-09-30 13:27:00,
2013-09-30 09:32:00,61.1,54.9,30.08,South,191,3.0,3.0,80,0.00,,,0.00,Wunderground v.1.15,2013-09-30 13:32:00,
2013-09-30 09:37:00,61.6,54.7,30.08,SSW,192,3.0,3.0,78,0.00,,,0.00,Wunderground v.1.15,2013-09-30 13:37:00,
2013-09-30 09:42:00,61.8,54.9,30.08,SSW,193,0.0,4.0,78,0.00,,,0.00,Wunderground v.1.15,2013-09-30 13:42:00,
2013-09-30 09:47:00,62.0,54.3,30.08,SSW,193,0.0,4.0,76,0.00,,,0.00,Wunderground v.1.15,2013-09-30 13:47:00,
2013-09-30 09:52:00,62.2,54.5,30.08,SSW,193,2.0,2.0,76,0.00,,,0.00,Wunderground v.1.15,2013-09-30 13:52:00,
2013-09-30 09:57:00,62.6,54.6,30.08,SSW,194,2.0,4.0,75,0.00,,,0.00,Wunderground v.1.15,2013-09-30 13:57:00,
2013-09-30 10:03:00,62.9,54.5,30.08,SSW,193,1.0,2.0,74,0.00,,,0.00,Wunderground v.1.15,2013-09-30 14:03:00,
2013-09-30 10:08:00,63.2,54.4,30.08,SSW,210,0.0,3.0,73,0.00,,,0.00,Wunderground v.1.15,2013-09-30 14:08:00,
2013-09-30 10:13:00,63.4,54.2,30.08,SSW,211,1.0,2.0,72,0.00,,,0.00,Wunderground v.1.15,2013-09-30 14:13:00,
2013-09-30 10:18:00,64.2,55.0,30.08,SSW,210,0.0,4.0,72,0.00,,,0.00,Wunderground v.1.15,2013-09-30 14:18:00,
2013-09-30 10:23:00,64.3,54.7,30.08,ESE,120,0.0,2.0,71,0.00,,,0.00,Wunderground v.1.15,2013-09-30 14:23:00,
2013-09-30 10:28:00,64.5,54.9,30.08,East,101,1.0,3.0,71,0.00,,,0.00,Wunderground v.1.15,2013-09-30 14:28:00,
2013-09-30 10:33:00,66.1,55.6,30.08,SSW,197,2.0,3.0,69,0.00,,,0.00,Wunderground v.1.15,2013-09-30 14:33:00,
2013-09-30 10:38:00,67.1,56.6,30.08,South,190,1.0,3.0,69,0.00,,,0.00,Wunderground v.1.15,2013-09-30 14:38:00,
2013-09-30 10:43:00,67.2,55.9,30.08,SSW,211,3.0,5.0,67,0.00,,,0.00,Wunderground v.1.15,2013-09-30 14:43:00,
2013-09-30 10:48:00,67.7,57.6,30.07,SSW,197,0.0,5.0,70,0.00,,,0.00,Wunderground v.1.15,2013-09-30 14:48:00,
2013-09-30 10:53:00,67.3,56.0,30.07,ESE,116,1.0,2.0,67,0.00,,,0.00,Wunderground v.1.15,2013-09-30 14:53:00,
2013-09-30 10:58:00,67.7,55.9,30.07,SSW,206,0.0,5.0,66,0.00,,,0.00,Wunderground v.1.15,2013-09-30 14:58:00,
2013-09-30 11:03:00,68.5,56.7,30.07,SSW,198,0.0,4.0,66,0.00,,,0.00,Wunderground v.1.15,2013-09-30 15:03:00,
2013-09-30 11:08:00,68.6,57.6,30.07,ESE,123,0.0,4.0,68,0.00,,,0.00,Wunderground v.1.15,2013-09-30 15:08:00,
2013-09-30 11:13:00,68.1,56.7,30.07,East,86,1.0,2.0,67,0.00,,,0.00,Wunderground v.1.15,2013-09-30 15:13:00,
2013-09-30 11:18:00,68.6,58.0,30.07,NE,34,1.0,3.0,69,0.00,,,0.00,Wunderground v.1.15,2013-09-30 15:18:00,
2013-09-30 11:23:00,68.5,57.1,30.07,West,279,1.0,3.0,67,0.00,,,0.00,Wunderground v.1.15,2013-09-30 15:23:00,
2013-09-30 11:28:00,69.9,58.4,30.07,SSW,202,1.0,3.0,67,0.00,,,0.00,Wunderground v.1.15,2013-09-30 15:28:00,
2013-09-30 11:33:00,69.7,57.8,30.07,South,183,0.0,7.0,66,0.00,,,0.00,Wunderground v.1.15,2013-09-30 15:33:00,
2013-09-30 11:38:00,71.0,58.2,30.07,SW,223,1.0,7.0,64,0.00,,,0.00,Wunderground v.1.15,2013-09-30 15:38:00,
2013-09-30 11:43:00,71.2,58.4,30.07,SW,226,2.0,3.0,64,0.00,,,0.00,Wunderground v.1.15,2013-09-30 15:43:00,
2013-09-30 11:48:00,70.9,57.2,30.07,SSW,211,0.0,4.0,62,0.00,,,0.00,Wunderground v.1.15,2013-09-30 15:48:00,
2013-09-30 11:53:00,70.7,57.9,30.06,SW,224,0.0,2.0,64,0.00,,,0.00,Wunderground v.1.15,2013-09-30 15:53:00,
2013-09-30 11:58:00,71.0,57.8,30.06,ENE,76,0.0,5.0,63,0.00,,,0.00,Wunderground v.1.15,2013-09-30 15:58:00,
2013-09-30 12:03:00,70.3,57.5,30.06,ESE,110,2.0,5.0,64,0.00,,,0.00,Wunderground v.1.15,2013-09-30 16:03:00,
2013-09-30 12:08:00,70.2,58.7,30.06,ESE,120,2.0,5.0,67,0.00,,,0.00,Wunderground v.1.15,2013-09-30 16:08:00,
2013-09-30 12:13:00,70.7,57.0,30.06,NE,53,4.0,4.0,62,0.00,,,0.00,Wunderground v.1.15,2013-09-30 16:13:00,
2013-09-30 12:18:00,69.7,56.5,30.06,ENE,65,3.0,5.0,63,0.00,,,0.00,Wunderground v.1.15,2013-09-30 16:18:00,
2013-09-30 12:23:00,69.7,56.5,30.06,SSW,200,3.0,3.0,63,0.00,,,0.00,Wunderground v.1.15,2013-09-30 16:23:00,
2013-09-30 12:28:00,70.0,57.7,30.06,SSW,202,1.0,5.0,65,0.00,,,0.00,Wunderground v.1.15,2013-09-30 16:28:00,
2013-09-30 12:33:00,72.1,57.0,30.06,WSW,241,2.0,4.0,59,0.00,,,0.00,Wunderground v.1.15,2013-09-30 16:33:00,
2013-09-30 12:39:00,69.9,57.2,30.06,South,190,0.0,5.0,64,0.00,,,0.00,Wunderground v.1.15,2013-09-30 16:39:00,
2013-09-30 12:44:00,68.8,57.0,30.05,SSW,196,0.0,5.0,66,0.00,,,0.00,Wunderground v.1.15,2013-09-30 16:44:00,
2013-09-30 12:49:00,69.3,57.5,30.05,SSW,196,0.0,5.0,66,0.00,,,0.00,Wunderground v.1.15,2013-09-30 16:49:00,
2013-09-30 12:54:00,68.7,56.0,30.05,SSW,196,1.0,1.0,64,0.00,,,0.00,Wunderground v.1.15,2013-09-30 16:54:00,
2013-09-30 12:59:00,68.9,55.8,30.05,SSE,164,0.0,3.0,63,0.00,,,0.00,Wunderground v.1.15,2013-09-30 16:59:00,
2013-09-30 13:04:00,69.7,57.8,30.04,ESE,109,1.0,2.0,66,0.00,,,0.00,Wunderground v.1.15,2013-09-30 17:04:00,
2013-09-30 13:09:00,72.4,59.5,30.04,ESE,107,0.0,2.0,64,0.00,,,0.00,Wunderground v.1.15,2013-09-30 17:09:00,
2013-09-30 13:14:00,74.2,57.5,30.04,South,184,0.0,3.0,56,0.00,,,0.00,Wunderground v.1.15,2013-09-30 17:14:00,
2013-09-30 13:19:00,71.9,56.3,30.03,East,98,1.0,4.0,58,0.00,,,0.00,Wunderground v.1.15,2013-09-30 17:19:00,
2013-09-30 13:24:00,71.0,55.9,30.03,NE,49,2.0,4.0,59,0.00,,,0.00,Wunderground v.1.15,2013-09-30 17:24:00,
2013-09-30 13:29:00,71.8,57.2,30.03,ESE,107,2.0,4.0,60,0.00,,,0.00,Wunderground v.1.15,2013-09-30 17:29:00,
2013-09-30 13:34:00,74.3,59.5,30.03,West,267,3.0,6.0,60,0.00,,,0.00,Wunderground v.1.15,2013-09-30 17:34:00,
2013-09-30 13:39:00,73.5,58.3,30.03,WNW,284,1.0,6.0,59,0.00,,,0.00,Wunderground v.1.15,2013-09-30 17:39:00,
2013-09-30 13:44:00,71.9,55.8,30.02,ENE,68,1.0,7.0,57,0.00,,,0.00,Wunderground v.1.15,2013-09-30 17:44:00,
2013-09-30 13:49:00,71.3,56.2,30.02,SW,216,4.0,7.0,59,0.00,,,0.00,Wunderground v.1.15,2013-09-30 17:49:00,
2013-09-30 13:54:00,72.6,57.0,30.02,SW,219,1.0,3.0,58,0.00,,,0.00,Wunderground v.1.15,2013-09-30 17:54:00,
2013-09-30 13:59:00,74.0,58.3,30.02,SSW,204,1.0,5.0,58,0.00,,,0.00,Wunderground v.1.15,2013-09-30 17:59:00,
2013-09-30 14:04:00,73.1,56.5,30.01,South,187,3.0,6.0,56,0.00,,,0.00,Wunderground v.1.15,2013-09-30 18:04:00,
2013-09-30 14:09:00,72.8,54.7,30.01,SSW,200,2.0,6.0,53,0.00,,,0.00,Wunderground v.1.15,2013-09-30 18:09:00,
2013-09-30 14:14:00,74.4,59.1,30.01,West,263,4.0,4.0,59,0.00,,,0.00,Wunderground v.1.15,2013-09-30 18:14:00,
2013-09-30 14:19:00,75.5,57.7,30.01,South,175,4.0,6.0,54,0.00,,,0.00,Wunderground v.1.15,2013-09-30 18:19:00,
2013-09-30 14:24:00,74.0,55.3,30.01,South,188,4.0,7.0,52,0.00,,,0.00,Wunderground v.1.15,2013-09-30 18:24:00,
2013-09-30 14:30:00,73.7,56.5,30.00,SSW,198,0.0,7.0,55,0.00,,,0.00,Wunderground v.1.15,2013-09-30 18:30:00,
2013-09-30 14:35:00,74.8,59.0,30.00,NE,47,1.0,3.0,58,0.00,,,0.00,Wunderground v.1.15,2013-09-30 18:35:00,
2013-09-30 14:39:00,74.2,56.5,30.00,SE,126,2.0,3.0,54,0.00,,,0.00,Wunderground v.1.15,2013-09-30 18:39:00,
2013-09-30 14:45:00,74.4,56.7,30.00,SSW,207,2.0,7.0,54,0.00,,,0.00,Wunderground v.1.15,2013-09-30 18:45:00,
2013-09-30 14:50:00,74.0,56.8,30.00,WSW,244,1.0,2.0,55,0.00,,,0.00,Wunderground v.1.15,2013-09-30 18:50:00,
2013-09-30 14:55:00,73.7,55.5,29.99,South,178,1.0,6.0,53,0.00,,,0.00,Wunderground v.1.15,2013-09-30 18:55:00,
2013-09-30 15:00:00,73.0,55.4,29.99,WNW,288,1.0,2.0,54,0.00,,,0.00,Wunderground v.1.15,2013-09-30 19:00:00,
2013-09-30 15:05:00,72.9,55.8,29.99,South,177,6.0,7.0,55,0.00,,,0.00,Wunderground v.1.15,2013-09-30 19:05:00,
2013-09-30 15:10:00,72.1,55.5,29.99,SW,235,1.0,3.0,56,0.00,,,0.00,Wunderground v.1.15,2013-09-30 19:10:00,
2013-09-30 15:15:00,71.4,55.9,29.99,West,279,1.0,4.0,58,0.00,,,0.00,Wunderground v.1.15,2013-09-30 19:15:00,
2013-09-30 15:20:00,70.9,55.9,29.99,West,281,3.0,3.0,59,0.00,,,0.00,Wunderground v.1.15,2013-09-30 19:20:00,
2013-09-30 15:25:00,70.5,55.5,29.99,WNW,286,1.0,3.0,59,0.00,,,0.00,Wunderground v.1.15,2013-09-30 19:25:00,
2013-09-30 15:30:00,71.2,56.1,29.99,West,275,0.0,2.0,59,0.00,,,0.00,Wunderground v.1.15,2013-09-30 19:30:00,
2013-09-30 15:35:00,71.5,55.9,29.99,SSW,207,3.0,3.0,58,0.00,,,0.00,Wunderground v.1.15,2013-09-30 19:35:00,
2013-09-30 15:40:00,72.1,56.5,29.99,SW,232,1.0,2.0,58,0.00,,,0.00,Wunderground v.1.15,2013-09-30 19:40:00,
2013-09-30 15:45:00,72.2,56.6,29.98,SW,215,3.0,3.0,58,0.00,,,0.00,Wunderground v.1.15,2013-09-30 19:45:00,
2013-09-30 15:50:00,72.4,56.3,29.98,South,186,3.0,5.0,57,0.00,,,0.00,Wunderground v.1.15,2013-09-30 19:50:00,
2013-09-30 15:55:00,72.0,54.9,29.98,South,183,1.0,5.0,55,0.00,,,0.00,Wunderground v.1.15,2013-09-30 19:55:00,
2013-09-30 16:00:00,72.1,56.5,29.98,SSW,196,1.0,2.0,58,0.00,,,0.00,Wunderground v.1.15,2013-09-30 20:00:00,
2013-09-30 16:05:00,72.1,56.0,29.98,NW,304,0.0,4.0,57,0.00,,,0.00,Wunderground v.1.15,2013-09-30 20:05:00,
2013-09-30 16:10:00,71.8,55.3,29.98,WSW,248,1.0,2.0,56,0.00,,,0.00,Wunderground v.1.15,2013-09-30 20:10:00,
2013-09-30 16:15:00,71.8,56.2,29.97,West,267,2.0,3.0,58,0.00,,,0.00,Wunderground v.1.15,2013-09-30 20:15:00,
2013-09-30 16:20:00,72.1,56.5,29.98,WNW,289,1.0,3.0,58,0.00,,,0.00,Wunderground v.1.15,2013-09-30 20:20:00,
2013-09-30 16:26:00,71.9,55.3,29.98,WNW,290,1.0,3.0,56,0.00,,,0.00,Wunderground v.1.15,2013-09-30 20:26:00,
2013-09-30 16:31:00,72.0,56.4,29.98,WNW,294,0.0,1.0,58,0.00,,,0.00,Wunderground v.1.15,2013-09-30 20:31:00,
2013-09-30 16:36:00,72.1,56.5,29.98,WNW,294,0.0,2.0,58,0.00,,,0.00,Wunderground v.1.15,2013-09-30 20:36:00,
2013-09-30 16:41:00,72.2,56.6,29.98,WNW,294,1.0,2.0,58,0.00,,,0.00,Wunderground v.1.15,2013-09-30 20:41:00,
2013-09-30 16:46:00,72.7,57.1,29.98,WNW,285,2.0,4.0,58,0.00,,,0.00,Wunderground v.1.15,2013-09-30 20:46:00,
2013-09-30 16:51:00,72.5,55.9,29.98,WNW,284,0.0,1.0,56,0.00,,,0.00,Wunderground v.1.15,2013-09-30 20:51:00,
2013-09-30 16:56:00,72.4,57.3,29.98,WNW,284,2.0,3.0,59,0.00,,,0.00,Wunderground v.1.15,2013-09-30 20:56:00,
2013-09-30 17:01:00,72.5,55.9,29.98,WNW,284,2.0,3.0,56,0.00,,,0.00,Wunderground v.1.15,2013-09-30 21:01:00,
2013-09-30 17:06:00,72.8,56.7,29.97,WNW,284,0.0,3.0,57,0.00,,,0.00,Wunderground v.1.15,2013-09-30 21:06:00,
2013-09-30 17:11:00,73.1,57.4,29.98,WNW,284,0.0,1.0,58,0.00,,,0.00,Wunderground v.1.15,2013-09-30 21:11:00,
2013-09-30 17:16:00,72.9,56.3,29.98,NE,49,0.0,3.0,56,0.00,,,0.00,Wunderground v.1.15,2013-09-30 21:16:00,
2013-09-30 17:21:00,72.7,56.6,29.98,NE,49,0.0,1.0,57,0.00,,,0.00,Wunderground v.1.15,2013-09-30 21:21:00,
2013-09-30 17:26:00,72.3,56.2,29.98,NE,49,0.0,2.0,57,0.00,,,0.00,Wunderground v.1.15,2013-09-30 21:26:00,
2013-09-30 17:31:00,72.1,55.5,29.98,NE,50,0.0,0.0,56,0.00,,,0.00,Wunderground v.1.15,2013-09-30 21:31:00,
2013-09-30 17:36:00,71.9,56.3,29.98,NE,50,0.0,2.0,58,0.00,,,0.00,Wunderground v.1.15,2013-09-30 21:36:00,
2013-09-30 17:41:00,71.7,56.6,29.98,NE,51,1.0,2.0,59,0.00,,,0.00,Wunderground v.1.15,2013-09-30 21:41:00,
2013-09-30 17:46:00,71.5,55.9,29.98,NE,51,0.0,3.0,58,0.00,,,0.00,Wunderground v.1.15,2013-09-30 21:46:00,
2013-09-30 17:51:00,71.3,55.8,29.98,NE,51,0.0,2.0,58,0.00,,,0.00,Wunderground v.1.15,2013-09-30 21:51:00,
2013-09-30 17:56:00,71.1,56.0,29.98,NE,51,0.0,2.0,59,0.00,,,0.00,Wunderground v.1.15,2013-09-30 21:56:00,
2013-09-30 18:01:00,70.9,55.9,29.99,NE,51,0.0,1.0,59,0.00,,,0.00,Wunderground v.1.15,2013-09-30 22:01:00,
2013-09-30 18:06:00,70.6,56.0,29.99,NE,51,0.0,2.0,60,0.00,,,0.00,Wunderground v.1.15,2013-09-30 22:06:00,
2013-09-30 18:29:00,68.8,57.0,29.99,NE,51,0.0,1.0,66,0.00,,,0.00,Wunderground v.1.15,2013-09-30 22:29:00,
2013-09-30 18:34:00,68.4,57.0,29.99,NE,51,0.0,1.0,67,0.00,,,0.00,Wunderground v.1.15,2013-09-30 22:34:00,
2013-09-30 18:39:00,68.0,57.0,29.99,NE,51,0.0,1.0,68,0.00,,,0.00,Wunderground v.1.15,2013-09-30 22:39:00,
2013-09-30 18:44:00,67.7,56.8,29.99,NE,51,0.0,0.0,68,0.00,,,0.00,Wunderground v.1.15,2013-09-30 22:44:00,
2013-09-30 18:49:00,67.3,56.8,29.99,NE,51,0.0,0.0,69,0.00,,,0.00,Wunderground v.1.15,2013-09-30 22:49:00,
2013-09-30 18:54:00,66.8,56.3,29.99,NE,51,0.0,0.0,69,0.00,,,0.00,Wunderground v.1.15,2013-09-30 22:54:00,
2013-09-30 18:59:00,66.4,56.3,29.99,NE,51,0.0,0.0,70,0.00,,,0.00,Wunderground v.1.15,2013-09-30 22:59:00,
2013-09-30 19:04:00,66.1,56.4,30.00,NE,51,0.0,0.0,71,0.00,,,0.00,Wunderground v.1.15,2013-09-30 23:04:00,
2013-09-30 19:09:00,65.8,56.1,30.00,NE,51,0.0,0.0,71,0.00,,,0.00,Wunderground v.1.15,2013-09-30 23:09:00,
2013-09-30 19:15:00,65.6,55.9,30.00,NE,51,0.0,0.0,71,0.00,,,0.00,Wunderground v.1.15,2013-09-30 23:15:00,
2013-09-30 19:19:00,65.4,56.1,30.00,NE,51,0.0,0.0,72,0.00,,,0.00,Wunderground v.1.15,2013-09-30 23:19:00,
2013-09-30 19:25:00,65.2,56.3,30.00,NE,51,0.0,0.0,73,0.00,,,0.00,Wunderground v.1.15,2013-09-30 23:25:00,
2013-09-30 19:30:00,64.7,56.2,30.00,NE,51,0.0,0.0,74,0.00,,,0.00,Wunderground v.1.15,2013-09-30 23:30:00,
2013-09-30 19:35:00,64.7,56.2,30.00,NE,51,0.0,0.0,74,0.00,,,0.00,Wunderground v.1.15,2013-09-30 23:35:00,
2013-09-30 19:40:00,64.7,56.2,30.00,NE,51,0.0,0.0,74,0.00,,,0.00,Wunderground v.1.15,2013-09-30 23:40:00,
2013-09-30 19:45:00,64.7,56.2,30.00,NE,51,0.0,0.0,74,0.00,,,0.00,Wunderground v.1.15,2013-09-30 23:45:00,
2013-09-30 19:50:00,64.4,55.9,30.00,NE,51,0.0,0.0,74,0.00,,,0.00,Wunderground v.1.15,2013-09-30 23:50:00,
2013-09-30 19:55:00,64.1,56.0,30.00,NE,51,0.0,0.0,75,0.00,,,0.00,Wunderground v.1.15,2013-09-30 23:55:00,
2013-09-30 20:00:00,64.2,56.1,30.00,NE,51,0.0,0.0,75,0.00,,,0.00,Wunderground v.1.15,2013-10-01 00:00:00,
2013-09-30 20:05:00,64.1,56.4,30.01,NE,51,0.0,0.0,76,0.00,,,0.00,Wunderground v.1.15,2013-10-01 00:05:00,
2013-09-30 20:10:00,63.9,56.2,30.01,NE,51,3.0,3.0,76,0.00,,,0.00,Wunderground v.1.15,2013-10-01 00:10:00,
2013-09-30 20:15:00,63.7,56.4,30.01,ENE,69,2.0,5.0,77,0.00,,,0.00,Wunderground v.1.15,2013-10-01 00:15:00,
2013-09-30 20:20:00,63.7,56.4,30.02,ENE,69,1.0,5.0,77,0.00,,,0.00,Wunderground v.1.15,2013-10-01 00:20:00,
2013-09-30 20:25:00,63.7,56.4,30.02,ENE,69,2.0,3.0,77,0.00,,,0.00,Wunderground v.1.15,2013-10-01 00:25:00,
2013-09-30 20:30:00,63.8,56.4,30.02,ENE,69,1.0,1.0,77,0.00,,,0.00,Wunderground v.1.15,2013-10-01 00:30:00,
2013-09-30 20:35:00,63.9,56.5,30.02,ENE,61,1.0,2.0,77,0.00,,,0.00,Wunderground v.1.15,2013-10-01 00:35:00,
2013-09-30 20:40:00,63.8,56.4,30.02,ENE,61,0.0,0.0,77,0.00,,,0.00,Wunderground v.1.15,2013-10-01 00:40:00,
2013-09-30 20:45:00,63.4,56.1,30.02,ENE,61,0.0,0.0,77,0.00,,,0.00,Wunderground v.1.15,2013-10-01 00:45:00,
2013-09-30 20:50:00,63.1,56.1,30.02,ENE,61,0.0,0.0,78,0.00,,,0.00,Wunderground v.1.15,2013-10-01 00:50:00,
2013-09-30 20:55:00,62.9,55.9,30.02,ENE,61,0.0,0.0,78,0.00,,,0.00,Wunderground v.1.15,2013-10-01 00:55:00,
2013-09-30 21:00:00,62.7,56.1,30.02,ENE,61,0.0,0.0,79,0.00,,,0.00,Wunderground v.1.15,2013-10-01 01:00:00,
2013-09-30 21:05:00,62.4,56.1,30.02,ENE,61,0.0,0.0,80,0.00,,,0.00,Wunderground v.1.15,2013-10-01 01:05:00,
2013-09-30 21:10:00,62.1,55.9,30.02,ENE,61,0.0,0.0,80,0.00,,,0.00,Wunderground v.1.15,2013-10-01 01:10:00,
2013-09-30 21:15:00,61.9,56.0,30.02,ENE,61,0.0,0.0,81,0.00,,,0.00,Wunderground v.1.15,2013-10-01 01:15:00,
2013-09-30 21:20:00,61.8,55.9,30.02,ENE,61,0.0,0.0,81,0.00,,,0.00,Wunderground v.1.15,2013-10-01 01:20:00,
2013-09-30 21:25:00,61.4,55.5,30.02,ENE,61,0.0,0.0,81,0.00,,,0.00,Wunderground v.1.15,2013-10-01 01:25:00,
2013-09-30 21:30:00,61.3,55.8,30.03,ENE,61,0.0,0.0,82,0.00,,,0.00,Wunderground v.1.15,2013-10-01 01:30:00,
2013-09-30 21:35:00,61.3,55.8,30.03,ENE,61,0.0,0.0,82,0.00,,,0.00,Wunderground v.1.15,2013-10-01 01:35:00,
2013-09-30 21:41:00,61.2,55.7,30.03,ENE,61,0.0,0.0,82,0.00,,,0.00,Wunderground v.1.15,2013-10-01 01:41:00,
2013-09-30 21:46:00,61.2,55.3,30.03,ENE,61,0.0,0.0,81,0.00,,,0.00,Wunderground v.1.15,2013-10-01 01:46:00,
2013-09-30 21:51:00,61.2,55.3,30.03,ENE,61,0.0,0.0,81,0.00,,,0.00,Wunderground v.1.15,2013-10-01 01:51:00,
2013-09-30 21:56:00,61.0,55.5,30.03,ENE,61,0.0,0.0,82,0.00,,,0.00,Wunderground v.1.15,2013-10-01 01:56:00,
2013-09-30 22:01:00,60.9,55.4,30.03,ENE,61,0.0,0.0,82,0.00,,,0.00,Wunderground v.1.15,2013-10-01 02:01:00,
2013-09-30 22:06:00,60.8,55.3,30.03,ENE,61,0.0,0.0,82,0.00,,,0.00,Wunderground v.1.15,2013-10-01 02:06:00,
2013-09-30 22:11:00,60.8,55.3,30.03,ENE,61,0.0,0.0,82,0.00,,,0.00,Wunderground v.1.15,2013-10-01 02:11:00,
2013-09-30 22:16:00,60.7,55.5,30.03,ENE,61,0.0,0.0,83,0.00,,,0.00,Wunderground v.1.15,2013-10-01 02:16:00,
2013-09-30 22:21:00,60.2,55.3,30.03,ENE,61,0.0,0.0,84,0.00,,,0.00,Wunderground v.1.15,2013-10-01 02:21:00,
2013-09-30 22:26:00,60.1,55.2,30.03,ENE,61,0.0,0.0,84,0.00,,,0.00,Wunderground v.1.15,2013-10-01 02:26:00,
2013-09-30 22:31:00,59.9,55.4,30.03,ENE,61,0.0,0.0,85,0.00,,,0.00,Wunderground v.1.15,2013-10-01 02:31:00,
2013-09-30 22:36:00,59.9,55.1,30.03,ENE,61,0.0,0.0,84,0.00,,,0.00,Wunderground v.1.15,2013-10-01 02:36:00,
2013-09-30 22:41:00,60.0,55.2,30.03,ENE,61,0.0,0.0,84,0.00,,,0.00,Wunderground v.1.15,2013-10-01 02:41:00,
2013-09-30 22:46:00,60.0,55.5,30.03,ENE,61,0.0,1.0,85,0.00,,,0.00,Wunderground v.1.15,2013-10-01 02:46:00,
2013-09-30 22:52:00,59.8,55.3,30.03,ENE,61,0.0,0.0,85,0.00,,,0.00,Wunderground v.1.15,2013-10-01 02:52:00,
2013-09-30 22:57:00,59.8,55.3,30.03,ENE,61,0.0,0.0,85,0.00,,,0.00,Wunderground v.1.15,2013-10-01 02:57:00,
2013-09-30 23:02:00,59.9,55.4,30.03,ENE,61,0.0,0.0,85,0.00,,,0.00,Wunderground v.1.15,2013-10-01 03:02:00,
2013-09-30 23:07:00,60.0,55.5,30.03,ENE,61,0.0,0.0,85,0.00,,,0.00,Wunderground v.1.15,2013-10-01 03:07:00,
2013-09-30 23:12:00,60.0,55.5,30.03,ENE,61,0.0,0.0,85,0.00,,,0.00,Wunderground v.1.15,2013-10-01 03:12:00,
2013-09-30 23:17:00,60.0,55.5,30.03,ENE,61,0.0,0.0,85,0.00,,,0.00,Wunderground v.1.15,2013-10-01 03:17:00,
2013-09-30 23:22:00,60.0,55.5,30.03,ENE,61,0.0,0.0,85,0.00,,,0.00,Wunderground v.1.15,2013-10-01 03:22:00,
2013-09-30 23:27:00,59.9,55.4,30.02,ENE,61,0.0,0.0,85,0.00,,,0.00,Wunderground v.1.15,2013-10-01 03:27:00,
2013-09-30 23:32:00,59.8,55.3,30.03,ENE,61,0.0,0.0,85,0.00,,,0.00,Wunderground v.1.15,2013-10-01 03:32:00,
2013-09-30 23:37:00,59.8,55.3,30.02,ENE,61,0.0,1.0,85,0.00,,,0.00,Wunderground v.1.15,2013-10-01 03:37:00,
2013-09-30 23:42:00,59.6,55.4,30.02,ENE,61,0.0,1.0,86,0.00,,,0.00,Wunderground v.1.15,2013-10-01 03:42:00,
2013-09-30 23:47:00,59.5,55.6,30.02,ENE,61,0.0,1.0,87,0.00,,,0.00,Wunderground v.1.15,2013-10-01 03:47:00,
2013-09-30 23:52:00,59.5,55.6,30.02,ENE,61,0.0,0.0,87,0.00,,,0.00,Wunderground v.1.15,2013-10-01 03:52:00,
2013-09-30 23:57:00,59.5,55.6,30.02,ENE,61,0.0,2.0,87,0.00,,,0.00,Wunderground v.1.15,2013-10-01 03:57:00,